Time;durP1;ratioP1;P1;durP2;ratioP2;P2;SDS_P1;SDS_P2;PMS_P1;PMS_P2;Temp;Humidity;BMP_temperature;BMP_pressure;BME280_temperature;BME280_humidity;BME280_pressure;Samples;Min_cycle;Max_cycle;Signal;HPM_P1;HPM_P2
2023/05/21 00:01:49;;;;;;;19.57;17.60;;;;;;;14.88;100.00;99904.88;5086305;28;20344;-64
2023/05/21 00:04:14;;;;;;;18.73;16.50;;;;;;;14.81;100.00;99902.75;5105735;27;20190;-63
2023/05/21 00:06:40;;;;;;;19.53;16.67;;;;;;;14.76;100.00;99902.28;5080266;28;20612;-65
2023/05/21 00:09:05;;;;;;;17.87;16.17;;;;;;;14.80;100.00;99897.69;5093399;28;20252;-64
2023/05/21 00:11:31;;;;;;;18.70;16.90;;;;;;;14.79;100.00;99891.69;5073680;28;20674;-64
2023/05/21 00:13:57;;;;;;;17.43;15.73;;;;;;;14.82;100.00;99890.63;5080210;28;20192;-64
2023/05/21 00:16:23;;;;;;;18.70;16.93;;;;;;;14.79;100.00;99896.84;5075544;28;20208;-64
2023/05/21 00:18:48;;;;;;;18.37;16.57;;;;;;;14.80;100.00;99889.94;5084619;28;20506;-64
2023/05/21 00:21:21;;;;;;;18.13;16.33;;;;;;;14.76;100.00;99889.34;5059690;28;20235;-64
2023/05/21 00:23:47;;;;;;;17.70;15.93;;;;;;;14.74;100.00;99888.63;5087483;28;20236;-65
2023/05/21 00:26:12;;;;;;;17.73;16.03;;;;;;;14.75;100.00;99885.09;5070428;28;20180;-65
2023/05/21 00:28:37;;;;;;;18.87;16.97;;;;;;;14.80;100.00;99884.75;5095141;28;20215;-63
2023/05/21 00:31:02;;;;;;;17.87;15.83;;;;;;;14.75;100.00;99877.31;5056820;28;20223;-64
2023/05/21 00:33:29;;;;;;;18.90;16.90;;;;;;;14.74;100.00;99878.25;5105953;27;20643;-65
2023/05/21 00:35:55;;;;;;;18.10;16.37;;;;;;;14.69;100.00;99873.41;5082503;28;20215;-65
2023/05/21 00:38:22;;;;;;;18.67;16.97;;;;;;;14.69;100.00;99877.78;5085711;28;20172;-65
2023/05/21 00:40:47;;;;;;;19.57;17.20;;;;;;;14.74;100.00;99880.03;5081743;28;20620;-65
2023/05/21 00:43:13;;;;;;;19.23;17.30;;;;;;;14.74;100.00;99875.66;5108503;27;20172;-65
2023/05/21 00:45:39;;;;;;;19.67;16.93;;;;;;;14.73;100.00;99868.84;5076192;28;20181;-66
2023/05/21 00:48:05;;;;;;;18.57;16.67;;;;;;;14.77;100.00;99861.66;5095234;28;20257;-65
2023/05/21 00:50:31;;;;;;;18.50;16.60;;;;;;;14.75;100.00;99861.78;5083218;28;20219;-65
2023/05/21 00:52:58;;;;;;;18.17;16.37;;;;;;;14.70;100.00;99858.72;5086075;28;20184;-64
2023/05/21 00:55:24;;;;;;;18.17;16.37;;;;;;;14.74;100.00;99862.72;5074110;28;20196;-65
2023/05/21 00:57:49;;;;;;;18.57;16.77;;;;;;;14.77;100.00;99864.25;5097259;28;20589;-65
2023/05/21 01:00:15;;;;;;;20.90;17.60;;;;;;;14.71;100.00;99865.56;5075606;28;20188;-66
2023/05/21 01:02:40;;;;;;;19.20;16.10;;;;;;;14.73;100.00;99860.25;5113423;28;20655;-65
2023/05/21 01:05:06;;;;;;;18.57;16.40;;;;;;;14.75;100.00;99855.75;5085500;28;20181;-65
2023/05/21 01:07:33;;;;;;;17.13;15.53;;;;;;;14.75;100.00;99855.75;5086686;28;20180;-65
2023/05/21 01:10:00;;;;;;;18.17;16.37;;;;;;;14.76;100.00;99849.66;5090212;28;20626;-65
2023/05/21 01:12:37;;;;;;;18.97;16.47;;;;;;;14.71;100.00;99852.63;5084489;28;20216;-66
2023/05/21 01:15:03;;;;;;;17.53;15.83;;;;;;;14.68;100.00;99850.25;5071728;28;20264;-66
2023/05/21 01:17:32;;;;;;;17.20;15.50;;;;;;;14.73;100.00;99853.31;5094192;28;20534;-65
2023/05/21 01:19:59;;;;;;;17.83;16.03;;;;;;;14.69;100.00;99850.13;5095605;28;20187;-65
2023/05/21 01:22:27;;;;;;;15.90;14.40;;;;;;;14.72;100.00;99845.66;5102563;28;20568;-65
2023/05/21 01:24:54;;;;;;;20.03;16.70;;;;;;;14.74;100.00;99848.97;5099472;28;20252;-64
2023/05/21 01:27:20;;;;;;;18.40;16.37;;;;;;;14.72;100.00;99841.28;5095626;28;20187;-64
2023/05/21 01:29:45;;;;;;;18.27;16.37;;;;;;;14.65;100.00;99845.31;5099330;28;20187;-65
2023/05/21 01:32:26;;;;;;;17.50;15.37;;;;;;;14.57;100.00;99842.44;5102165;28;20227;-65
2023/05/21 01:34:58;;;;;;;17.67;15.40;;;;;;;14.63;100.00;99835.03;5096498;28;20760;-65
2023/05/21 01:37:35;;;;;;;17.10;15.33;;;;;;;14.60;100.00;99830.09;5099547;28;20561;-64
2023/05/21 01:40:24;;;;;;;17.03;15.40;;;;;;;14.63;100.00;99834.22;5087776;28;20197;-65
2023/05/21 01:42:50;;;;;;;16.93;15.33;;;;;;;14.67;100.00;99828.72;5063555;28;20220;-64
2023/05/21 01:45:17;;;;;;;18.43;16.57;;;;;;;14.68;100.00;99830.34;5097567;28;20202;-64
2023/05/21 01:47:46;;;;;;;17.10;15.37;;;;;;;14.69;100.00;99826.81;5079141;28;20179;-65
2023/05/21 01:50:12;;;;;;;15.87;14.37;;;;;;;14.72;100.00;99832.72;5088105;28;20519;-65
2023/05/21 01:52:37;;;;;;;17.57;14.90;;;;;;;14.71;100.00;99820.72;5110756;28;20185;-66
2023/05/21 01:55:03;;;;;;;15.93;14.33;;;;;;;14.69;100.00;99824.22;5096997;28;20579;-65
2023/05/21 01:57:28;;;;;;;17.13;15.40;;;;;;;14.69;100.00;99813.06;5109760;28;20180;-65
2023/05/21 01:59:56;;;;;;;17.17;15.57;;;;;;;14.60;100.00;99811.13;5095419;28;20188;-65
2023/05/21 02:02:21;;;;;;;17.23;15.23;;;;;;;14.56;100.00;99815.72;5099946;28;20215;-66
2023/05/21 02:04:48;;;;;;;17.03;15.33;;;;;;;14.63;100.00;99816.91;5105214;28;20187;-65
2023/05/21 02:07:14;;;;;;;17.00;15.30;;;;;;;14.60;100.00;99817.16;5114405;28;20170;-64
2023/05/21 02:09:39;;;;;;;16.97;15.30;;;;;;;14.65;100.00;99804.72;5083403;28;20184;-64
2023/05/21 02:12:06;;;;;;;17.03;15.33;;;;;;;14.63;100.00;99814.31;5113559;27;20571;-64
2023/05/21 02:14:32;;;;;;;17.60;15.70;;;;;;;14.53;100.00;99811.59;5115105;28;20191;-64
2023/05/21 02:16:58;;;;;;;18.00;15.27;;;;;;;14.48;100.00;99813.72;5086125;28;20196;-64
2023/05/21 02:19:23;;;;;;;16.73;15.13;;;;;;;14.46;100.00;99810.44;5080201;28;20168;-64
2023/05/21 02:21:48;;;;;;;17.43;15.73;;;;;;;14.42;100.00;99815.94;5101614;27;20676;-65
2023/05/21 02:24:14;;;;;;;17.30;15.23;;;;;;;14.46;100.00;99810.44;5116875;27;20218;-65
2023/05/21 02:26:39;;;;;;;17.60;15.43;;;;;;;14.51;100.00;99813.50;5095685;28;20183;-65
2023/05/21 02:29:05;;;;;;;17.07;15.37;;;;;;;14.54;100.00;99807.25;5115040;28;20535;-66
2023/05/21 02:31:30;;;;;;;16.67;15.03;;;;;;;14.55;100.00;99811.50;5098842;28;20258;-65
2023/05/21 02:33:56;;;;;;;16.93;15.30;;;;;;;14.59;100.00;99812.09;5098401;28;20309;-64
2023/05/21 02:36:24;;;;;;;15.97;14.40;;;;;;;14.59;100.00;99812.91;5094044;28;20169;-64
2023/05/21 02:38:49;;;;;;;15.70;14.20;;;;;;;14.58;100.00;99807.84;5104970;28;20530;-64
2023/05/21 02:41:14;;;;;;;17.00;15.30;;;;;;;14.60;100.00;99805.97;5113164;27;20237;-64
2023/05/21 02:43:40;;;;;;;17.57;15.70;;;;;;;14.51;100.00;99810.91;5120803;27;20598;-64
2023/05/21 02:46:06;;;;;;;17.50;15.70;;;;;;;14.56;100.00;99804.56;5113370;28;20661;-64
2023/05/21 02:48:31;;;;;;;16.67;14.77;;;;;;;14.60;100.00;99809.38;5114044;28;20168;-64
2023/05/21 02:50:57;;;;;;;17.13;15.53;;;;;;;14.64;100.00;99807.38;5110011;27;20297;-64
2023/05/21 02:53:23;;;;;;;17.13;15.03;;;;;;;14.59;100.00;99806.91;5123206;27;20182;-64
2023/05/21 02:55:48;;;;;;;18.07;16.27;;;;;;;14.62;100.00;99807.47;5112785;28;20553;-64
2023/05/21 02:58:14;;;;;;;16.40;14.67;;;;;;;14.61;100.00;99805.03;5104355;28;20675;-64
2023/05/21 03:00:39;;;;;;;18.00;16.20;;;;;;;14.59;100.00;99809.50;5056859;28;20220;-65
2023/05/21 03:03:04;;;;;;;17.33;15.50;;;;;;;14.61;100.00;99807.59;5102603;28;20187;-64
2023/05/21 03:05:30;;;;;;;19.03;15.10;;;;;;;14.61;100.00;99807.59;5113126;28;20184;-65
2023/05/21 03:07:55;;;;;;;17.10;15.40;;;;;;;14.62;100.00;99801.50;5113757;28;20211;-65
2023/05/21 03:10:21;;;;;;;16.10;14.60;;;;;;;14.61;100.00;99813.63;5102813;28;20182;-65
2023/05/21 03:12:46;;;;;;;18.83;16.30;;;;;;;14.62;100.00;99806.66;5114906;27;20656;-65
2023/05/21 03:15:13;;;;;;;17.20;15.53;;;;;;;14.56;100.00;99801.97;5102782;27;20215;-65
2023/05/21 03:17:40;;;;;;;17.53;15.77;;;;;;;14.52;100.00;99803.97;5128940;27;20175;-64
2023/05/21 03:20:07;;;;;;;17.50;15.67;;;;;;;14.58;100.00;99800.09;5083978;27;20550;-65
2023/05/21 03:22:32;;;;;;;16.33;14.73;;;;;;;14.61;100.00;99805.84;5129310;27;20227;-66
2023/05/21 03:24:59;;;;;;;17.03;15.27;;;;;;;14.59;100.00;99799.16;5095683;28;20532;-65
2023/05/21 03:27:24;;;;;;;18.07;15.80;;;;;;;14.59;100.00;99801.75;5107377;28;20203;-65
2023/05/21 03:29:50;;;;;;;18.77;16.87;;;;;;;14.60;100.00;99803.38;5093610;28;20207;-65
2023/05/21 03:32:16;;;;;;;17.43;15.63;;;;;;;14.60;100.00;99801.63;5047336;27;20587;-65
2023/05/21 03:34:41;;;;;;;16.97;15.23;;;;;;;14.62;100.00;99802.31;5085674;28;20192;-65
2023/05/21 03:37:06;;;;;;;18.47;15.60;;;;;;;14.61;100.00;99802.44;5093666;28;20180;-65
2023/05/21 03:39:31;;;;;;;16.80;15.20;;;;;;;14.58;100.00;99795.72;5085188;28;20538;-65
2023/05/21 03:41:57;;;;;;;18.53;16.27;;;;;;;14.59;100.00;99799.97;5101831;27;20264;-64
2023/05/21 03:44:22;;;;;;;17.57;15.77;;;;;;;14.57;100.00;99801.84;5114374;27;20630;-64
2023/05/21 03:46:47;;;;;;;16.13;14.60;;;;;;;14.56;100.00;99801.97;5094535;28;20168;-65
2023/05/21 03:49:13;;;;;;;17.77;15.97;;;;;;;14.47;100.00;99803.47;5075091;28;20184;-64
2023/05/21 03:51:38;;;;;;;18.30;15.70;;;;;;;14.40;100.00;99803.13;5095323;28;20223;-65
2023/05/21 03:54:03;;;;;;;17.53;15.47;;;;;;;14.40;100.00;99797.13;5096274;28;20215;-65
2023/05/21 03:56:28;;;;;;;18.10;16.30;;;;;;;14.41;100.00;99798.78;5101369;28;20183;-65
2023/05/21 03:58:54;;;;;;;17.07;15.30;;;;;;;14.42;100.00;99796.06;5097602;28;20198;-65
2023/05/21 04:01:19;;;;;;;21.33;15.83;;;;;;;14.45;100.00;99795.84;5092699;27;20762;-64
2023/05/21 04:03:44;;;;;;;17.70;15.87;;;;;;;14.50;100.00;99796.31;5112975;28;20191;-64
2023/05/21 04:06:10;;;;;;;17.00;15.20;;;;;;;14.53;100.00;99798.66;5112109;28;20171;-64
2023/05/21 04:08:36;;;;;;;16.67;14.93;;;;;;;14.58;100.00;99798.31;5111793;28;20171;-65
2023/05/21 04:11:02;;;;;;;17.17;15.37;;;;;;;14.57;100.00;99799.25;5109700;27;20218;-64
2023/05/21 04:13:27;;;;;;;18.07;16.20;;;;;;;14.64;100.00;99802.22;5118928;27;20186;-64
2023/05/21 04:15:53;;;;;;;16.07;14.57;;;;;;;14.68;100.00;99801.88;5110948;28;20199;-64
2023/05/21 04:18:19;;;;;;;16.47;14.87;;;;;;;14.72;100.00;99806.81;5110585;28;20724;-64
2023/05/21 04:20:44;;;;;;;16.87;15.17;;;;;;;14.79;100.00;99800.25;5087152;27;20243;-64
2023/05/21 04:23:10;;;;;;;16.07;14.43;;;;;;;14.84;100.00;99805.88;5120922;27;20333;-64
2023/05/21 04:25:37;;;;;;;16.47;14.80;;;;;;;14.85;100.00;99812.72;5111293;28;20172;-64
2023/05/21 04:28:03;;;;;;;16.33;14.83;;;;;;;14.88;100.00;99811.66;5110064;28;20201;-64
2023/05/21 04:30:29;;;;;;;17.37;15.67;;;;;;;14.96;100.00;99809.31;5087274;27;20231;-64
2023/05/21 04:32:54;;;;;;;16.87;15.33;;;;;;;15.00;100.00;99806.34;5124849;27;20233;-64
2023/05/21 04:35:20;;;;;;;16.97;15.27;;;;;;;15.10;100.00;99805.63;5101451;28;20237;-64
2023/05/21 04:37:45;;;;;;;16.07;14.37;;;;;;;15.17;100.00;99811.97;5095997;28;20176;-65
2023/05/21 04:40:16;;;;;;;16.70;13.83;;;;;;;15.38;100.00;99816.41;5092325;28;20207;-65
2023/05/21 04:42:42;;;;;;;16.10;14.40;;;;;;;15.51;100.00;99811.88;5106213;28;20172;-65
2023/05/21 04:45:09;;;;;;;16.00;13.57;;;;;;;15.74;100.00;99819.56;5091842;28;20231;-65
2023/05/21 04:47:34;;;;;;;17.17;14.70;;;;;;;15.80;100.00;99814.75;5092336;28;20247;-64
2023/05/21 04:50:00;;;;;;;17.13;14.17;;;;;;;16.02;100.00;99812.19;5074298;28;20237;-65
2023/05/21 04:52:26;;;;;;;16.03;14.10;;;;;;;16.22;100.00;99816.53;5098119;28;20220;-63
2023/05/21 04:54:52;;;;;;;15.47;13.93;;;;;;;16.29;100.00;99809.09;5092556;28;20184;-64
2023/05/21 04:57:18;;;;;;;15.70;14.00;;;;;;;16.43;100.00;99816.56;5106178;28;20191;-63
2023/05/21 04:59:43;;;;;;;15.03;12.63;;;;;;;16.64;100.00;99817.47;5112389;28;20240;-64
2023/05/21 05:02:08;;;;;;;14.77;13.30;;;;;;;16.85;100.00;99820.81;5116013;27;20266;-63
2023/05/21 05:04:34;;;;;;;14.53;13.07;;;;;;;17.01;100.00;99817.75;5111980;28;20213;-64
2023/05/21 05:06:59;;;;;;;14.70;13.40;;;;;;;17.26;100.00;99819.03;5110223;28;20210;-65
2023/05/21 05:09:25;;;;;;;17.30;13.30;;;;;;;17.47;100.00;99810.31;5076554;28;20680;-65
2023/05/21 05:11:50;;;;;;;13.60;12.30;;;;;;;17.46;100.00;99816.47;5100728;28;20231;-65
2023/05/21 05:14:15;;;;;;;14.70;11.43;;;;;;;17.64;100.00;99816.63;5112482;28;20199;-64
2023/05/21 05:16:41;;;;;;;14.10;12.57;;;;;;;17.88;100.00;99812.81;5109739;28;20210;-65
2023/05/21 05:19:07;;;;;;;13.83;12.53;;;;;;;18.30;100.00;99815.09;5100446;28;20173;-65
2023/05/21 05:21:32;;;;;;;13.27;11.90;;;;;;;18.55;100.00;99810.22;5102585;27;20252;-65
2023/05/21 05:23:57;;;;;;;17.57;12.03;;;;;;;18.54;100.00;99801.59;5115231;28;20179;-65
2023/05/21 05:26:22;;;;;;;12.93;11.53;;;;;;;18.74;100.00;99803.28;5110493;28;20182;-65
2023/05/21 05:28:48;;;;;;;15.13;11.77;;;;;;;18.76;100.00;99806.59;5111270;28;20180;-66
2023/05/21 05:31:13;;;;;;;12.37;11.17;;;;;;;18.71;100.00;99804.41;5079071;28;20713;-66
2023/05/21 05:33:40;;;;;;;18.27;11.33;;;;;;;18.99;100.00;99802.66;5121944;27;20198;-66
2023/05/21 05:36:05;;;;;;;14.80;11.30;;;;;;;19.34;100.00;99800.25;5115208;28;20247;-66
2023/05/21 05:38:31;;;;;;;12.93;11.63;;;;;;;19.82;100.00;99803.44;5116059;28;20219;-66
2023/05/21 05:40:56;;;;;;;12.07;10.80;;;;;;;19.98;100.00;99798.38;5111586;27;20396;-64
2023/05/21 05:43:23;;;;;;;11.23;10.10;;;;;;;20.10;100.00;99800.75;5123898;27;20182;-65
2023/05/21 05:45:48;;;;;;;11.73;10.43;;;;;;;20.20;100.00;99801.44;5114172;28;20180;-65
2023/05/21 05:48:13;;;;;;;11.20;10.03;;;;;;;19.95;100.00;99798.66;5097168;28;20538;-65
2023/05/21 05:50:39;;;;;;;10.93;9.83;;;;;;;19.63;100.00;99799.22;5108550;27;20239;-66
2023/05/21 05:53:06;;;;;;;11.90;10.80;;;;;;;19.62;100.00;99802.78;5126580;27;20529;-66
2023/05/21 05:55:31;;;;;;;11.63;10.33;;;;;;;20.00;100.00;99801.63;5115149;28;20230;-66
2023/05/21 05:57:56;;;;;;;11.93;10.87;;;;;;;20.18;100.00;99800.81;5108117;28;20573;-67
2023/05/21 06:00:21;;;;;;;13.30;11.27;;;;;;;20.03;100.00;99804.94;5087409;27;20208;-65
2023/05/21 06:02:47;;;;;;;11.70;10.47;;;;;;;19.83;100.00;99800.72;5108556;27;20184;-64
2023/05/21 06:05:12;;;;;;;12.73;10.43;;;;;;;19.75;100.00;99805.03;5094984;28;20236;-65
2023/05/21 06:07:39;;;;;;;11.10;10.10;;;;;;;20.37;100.00;99799.75;5095257;28;20180;-65
2023/05/21 06:10:06;;;;;;;11.63;10.43;;;;;;;20.58;100.00;99803.81;5091799;27;20243;-65
2023/05/21 06:12:31;;;;;;;11.27;10.27;;;;;;;20.58;100.00;99806.41;5115867;27;20211;-65
2023/05/21 06:14:56;;;;;;;12.07;10.83;;;;;;;21.04;100.00;99806.94;5101233;28;20628;-65
2023/05/21 06:17:21;;;;;;;15.23;10.50;;;;;;;21.17;99.15;99803.84;5115213;28;20205;-65
2023/05/21 06:19:47;;;;;;;14.10;11.33;;;;;;;21.12;100.00;99806.97;5099936;28;20183;-65
2023/05/21 06:22:12;;;;;;;11.40;10.40;;;;;;;21.60;99.88;99811.66;5099977;28;20227;-65
2023/05/21 06:24:37;;;;;;;10.97;9.97;;;;;;;22.20;97.42;99813.09;5073248;28;20193;-65
2023/05/21 06:27:03;;;;;;;12.47;9.90;;;;;;;22.52;92.36;99807.97;5090355;28;20183;-63
2023/05/21 06:29:28;;;;;;;11.30;10.20;;;;;;;22.38;90.99;99810.28;5095311;28;20225;-65
2023/05/21 06:31:54;;;;;;;11.20;10.10;;;;;;;22.89;89.80;99815.16;5098775;28;20299;-65
2023/05/21 06:34:19;;;;;;;11.80;8.83;;;;;;;23.43;88.52;99810.97;5076055;28;20723;-64
2023/05/21 06:36:44;;;;;;;10.20;9.10;;;;;;;23.69;86.74;99809.78;5106764;28;20187;-65
2023/05/21 06:39:09;;;;;;;12.23;9.83;;;;;;;23.87;86.38;99808.69;5114729;28;20179;-63
2023/05/21 06:41:35;;;;;;;10.05;9.15;;;;;;;24.00;84.44;99811.50;5092440;28;20682;-64
2023/05/21 06:44:00;;;;;;;12.52;10.35;;;;;;;25.01;77.43;99810.25;5099130;28;20184;-65
2023/05/21 06:46:25;;;;;;;10.13;9.13;;;;;;;26.66;68.22;99810.16;5075689;28;20182;-66
2023/05/21 06:48:51;;;;;;;12.10;9.70;;;;;;;25.91;63.79;99823.88;5104770;28;20179;-66
2023/05/21 06:51:16;;;;;;;9.60;8.75;;;;;;;26.08;63.70;99817.34;5092115;27;20252;-66
2023/05/21 06:53:41;;;;;;;17.10;9.88;;;;;;;25.77;64.91;99830.88;5104678;27;20179;-67
2023/05/21 06:56:07;;;;;;;11.80;9.23;;;;;;;25.39;70.42;99820.59;5099051;28;20629;-67
2023/05/21 06:58:32;;;;;;;9.93;8.90;;;;;;;25.64;70.62;99825.47;5106476;28;20188;-67
2023/05/21 07:00:58;;;;;;;10.20;8.98;;;;;;;26.20;64.45;99822.91;5062024;28;20667;-66
2023/05/21 07:03:24;;;;;;;9.60;8.68;;;;;;;26.02;64.25;99830.44;5102461;28;20184;-66
2023/05/21 07:05:49;;;;;;;11.30;9.25;;;;;;;25.24;68.66;99836.41;5111574;28;20255;-66
2023/05/21 07:08:15;;;;;;;9.70;8.75;;;;;;;25.13;66.13;99821.91;5113853;28;20195;-65
2023/05/21 07:10:41;;;;;;;8.98;8.10;;;;;;;24.87;69.68;99825.91;5107449;27;20245;-66
2023/05/21 07:13:06;;;;;;;9.88;8.85;;;;;;;24.19;77.10;99833.84;5125010;27;20187;-66
2023/05/21 07:15:31;;;;;;;10.27;8.90;;;;;;;23.50;80.09;99826.84;5105970;27;20690;-66
2023/05/21 07:17:57;;;;;;;11.77;9.23;;;;;;;23.59;82.39;99828.44;5125875;27;20176;-66
2023/05/21 07:20:22;;;;;;;12.15;8.77;;;;;;;23.14;84.97;99833.41;5083206;27;20224;-66
2023/05/21 07:22:47;;;;;;;10.05;9.15;;;;;;;23.47;83.47;99828.00;5126915;27;20227;-65
2023/05/21 07:25:12;;;;;;;10.25;9.25;;;;;;;24.10;78.40;99830.50;5094325;28;20209;-65
2023/05/21 07:27:38;;;;;;;9.30;8.50;;;;;;;25.06;67.87;99823.69;5113836;28;20244;-65
2023/05/21 07:30:04;;;;;;;9.40;8.45;;;;;;;25.50;66.85;99824.56;5106154;27;20180;-66
2023/05/21 07:32:29;;;;;;;9.05;8.18;;;;;;;26.61;57.22;99823.94;5081332;28;20220;-66
2023/05/21 07:34:55;;;;;;;9.55;8.68;;;;;;;27.16;55.18;99818.66;5113389;28;20206;-65
2023/05/21 07:37:20;;;;;;;8.93;8.13;;;;;;;26.44;55.93;99822.63;5094783;28;20278;-65
2023/05/21 07:39:45;;;;;;;8.90;8.00;;;;;;;26.06;56.55;99816.72;5112848;28;20183;-65
2023/05/21 07:42:11;;;;;;;8.95;7.68;;;;;;;27.56;52.83;99825.88;5118108;27;20222;-65
2023/05/21 07:44:37;;;;;;;8.77;7.95;;;;;;;26.61;53.83;99817.84;5113459;28;20184;-65
2023/05/21 07:47:02;;;;;;;16.25;8.55;;;;;;;26.20;56.71;99822.09;5094391;28;20252;-65
2023/05/21 07:49:27;;;;;;;13.35;8.73;;;;;;;24.77;66.56;99818.28;5104591;28;20304;-65
2023/05/21 07:51:53;;;;;;;9.02;8.15;;;;;;;26.20;59.37;99812.34;5097950;28;20543;-66
2023/05/21 07:54:18;;;;;;;8.15;7.55;;;;;;;26.79;54.36;99818.16;5104957;28;20209;-66
2023/05/21 07:56:43;;;;;;;8.73;7.93;;;;;;;27.88;49.31;99822.63;5112587;28;20184;-66
2023/05/21 07:59:09;;;;;;;9.27;8.48;;;;;;;28.35;48.40;99815.47;5074089;28;20180;-66
2023/05/21 08:01:36;;;;;;;9.77;8.27;;;;;;;28.70;46.33;99822.28;5085702;27;20231;-65
2023/05/21 08:04:04;;;;;;;8.65;7.93;;;;;;;27.79;48.84;99822.84;5092401;27;20187;-65
2023/05/21 08:06:30;;;;;;;8.55;7.75;;;;;;;25.90;55.22;99823.06;5092337;28;20281;-65
2023/05/21 08:08:56;;;;;;;9.43;8.52;;;;;;;26.24;57.74;99815.41;5092623;28;20615;-65
2023/05/21 08:11:22;;;;;;;9.30;7.93;;;;;;;26.83;55.39;99805.38;5092441;28;20249;-66
2023/05/21 08:13:47;;;;;;;9.15;8.30;;;;;;;26.49;55.84;99810.47;5115630;27;20190;-66
2023/05/21 08:16:12;;;;;;;9.10;8.40;;;;;;;26.58;58.15;99808.50;5082438;28;20682;-65
2023/05/21 08:18:38;;;;;;;9.88;8.60;;;;;;;26.53;56.08;99814.38;5068727;28;20272;-66
2023/05/21 08:21:03;;;;;;;9.60;8.75;;;;;;;26.20;56.47;99811.56;5057211;28;20257;-65
2023/05/21 08:23:29;;;;;;;11.25;8.77;;;;;;;26.50;56.00;99809.47;5096416;28;20220;-65
2023/05/21 08:25:54;;;;;;;9.60;8.70;;;;;;;27.67;51.83;99812.06;5091533;28;20180;-65
2023/05/21 08:28:21;;;;;;;9.40;8.63;;;;;;;28.11;48.11;99815.13;5091100;28;20176;-65
2023/05/21 08:30:47;;;;;;;9.25;8.45;;;;;;;27.30;50.29;99814.25;5074757;28;20621;-66
2023/05/21 08:33:13;;;;;;;8.80;8.07;;;;;;;26.65;55.98;99816.44;5088788;28;20211;-65
2023/05/21 08:35:38;;;;;;;9.27;8.48;;;;;;;25.63;61.32;99816.78;5091461;28;20218;-66
2023/05/21 08:38:04;;;;;;;9.82;8.95;;;;;;;25.93;61.83;99809.50;5091719;28;20183;-65
2023/05/21 08:40:29;;;;;;;9.23;8.25;;;;;;;26.71;54.50;99811.19;5083855;28;20315;-65
2023/05/21 08:42:55;;;;;;;9.80;8.80;;;;;;;25.94;59.79;99831.41;5104411;28;20211;-65
2023/05/21 08:45:21;;;;;;;11.00;9.13;;;;;;;25.39;64.75;99826.69;5091806;28;20191;-64
2023/05/21 08:47:52;;;;;;;9.25;8.50;;;;;;;25.74;62.75;99818.09;5073691;28;20180;-65
2023/05/21 08:50:18;;;;;;;10.95;9.68;;;;;;;26.02;61.98;99819.91;5082502;28;20254;-65
2023/05/21 08:52:43;;;;;;;10.07;9.02;;;;;;;25.89;62.56;99815.38;5100338;28;20185;-65
2023/05/21 08:55:09;;;;;;;9.65;8.80;;;;;;;25.52;65.10;99812.81;5088419;28;20622;-64
2023/05/21 08:57:35;;;;;;;9.82;8.80;;;;;;;26.22;63.25;99809.53;5091568;28;20211;-65
2023/05/21 09:00:03;;;;;;;9.88;8.98;;;;;;;25.45;65.34;99820.66;5091655;28;20542;-66
2023/05/21 09:02:32;;;;;;;9.73;8.82;;;;;;;25.29;62.99;99820.88;5059588;28;20223;-65
2023/05/21 09:05:01;;;;;;;9.30;8.40;;;;;;;25.25;63.74;99811.72;5083041;28;20179;-66
2023/05/21 09:07:28;;;;;;;9.63;8.80;;;;;;;25.31;68.57;99813.59;5073279;28;20301;-65
2023/05/21 09:09:55;;;;;;;9.35;8.55;;;;;;;26.25;62.14;99802.03;5091759;28;20296;-65
2023/05/21 09:12:20;;;;;;;11.60;9.15;;;;;;;26.83;57.19;99808.84;5082507;28;20246;-66
2023/05/21 09:14:46;;;;;;;9.88;8.93;;;;;;;26.94;57.36;99801.34;5091746;28;20661;-66
2023/05/21 09:17:13;;;;;;;10.52;9.50;;;;;;;27.83;51.27;99797.63;5091072;28;20188;-66
2023/05/21 09:20:08;;;;;;;8.60;7.85;;;;;;;27.81;49.55;99801.47;5082118;28;20584;-66
2023/05/21 09:22:34;;;;;;;9.82;8.73;;;;;;;28.20;49.27;99799.84;5055803;28;20241;-66
2023/05/21 09:25:03;;;;;;;9.40;8.55;;;;;;;28.43;47.32;99809.13;5104059;28;20186;-66
2023/05/21 09:27:28;;;;;;;10.10;9.10;;;;;;;27.76;49.63;99801.28;5111783;28;20172;-65
2023/05/21 09:29:54;;;;;;;11.27;8.95;;;;;;;26.57;54.43;99801.63;5094861;28;20176;-65
2023/05/21 09:32:19;;;;;;;9.18;8.38;;;;;;;26.83;55.30;99795.66;5096278;28;20243;-65
2023/05/21 09:34:46;;;;;;;9.55;8.50;;;;;;;27.76;52.57;99796.00;5091865;28;20204;-65
2023/05/21 09:37:12;;;;;;;8.93;8.02;;;;;;;26.83;52.58;99797.47;5091188;28;20180;-65
2023/05/21 09:39:39;;;;;;;8.77;8.00;;;;;;;27.04;52.16;99802.63;5092046;28;20683;-65
2023/05/21 09:42:05;;;;;;;8.98;8.07;;;;;;;27.19;51.51;99802.44;5086018;28;20216;-65
2023/05/21 09:44:31;;;;;;;8.95;8.15;;;;;;;27.82;49.21;99801.31;5090355;28;20186;-65
2023/05/21 09:47:00;;;;;;;9.95;8.95;;;;;;;27.57;49.83;99801.09;5091925;28;20176;-65
2023/05/21 09:49:26;;;;;;;8.48;7.68;;;;;;;28.71;45.88;99797.47;5093157;28;20187;-65
2023/05/21 09:51:57;;;;;;;9.68;8.63;;;;;;;28.73;46.16;99798.88;5094787;28;20705;-66
2023/05/21 09:54:24;;;;;;;8.95;7.70;;;;;;;29.27;44.78;99801.22;5088168;28;20211;-65
2023/05/21 09:56:52;;;;;;;8.68;7.90;;;;;;;28.96;42.88;99805.47;5093732;28;20240;-65
2023/05/21 09:59:17;;;;;;;8.25;7.53;;;;;;;27.98;44.58;99789.50;5091574;28;20176;-65
2023/05/21 10:01:42;;;;;;;13.07;8.35;;;;;;;28.15;45.70;99792.53;5096009;28;20288;-65
2023/05/21 10:04:08;;;;;;;8.77;7.97;;;;;;;27.73;46.92;99794.56;5113704;28;20595;-66
2023/05/21 10:06:42;;;;;;;9.50;8.43;;;;;;;27.83;47.15;99800.25;5110189;28;20278;-66
2023/05/21 10:09:10;;;;;;;10.02;8.00;;;;;;;28.50;44.56;99794.88;5111307;28;20176;-66
2023/05/21 10:11:35;;;;;;;8.95;8.15;;;;;;;28.45;44.86;99799.97;5109360;28;20272;-66
2023/05/21 10:14:15;;;;;;;7.88;7.18;;;;;;;29.03;42.21;99800.97;5102744;28;20669;-66
2023/05/21 10:16:41;;;;;;;9.25;8.50;;;;;;;28.56;44.79;99787.13;5109969;28;20227;-65
2023/05/21 10:19:10;;;;;;;8.18;7.38;;;;;;;27.46;45.57;99778.75;5109277;28;20259;-66
2023/05/21 10:21:35;;;;;;;9.88;8.15;;;;;;;27.64;47.37;99778.13;5108474;27;20226;-66
2023/05/21 10:24:02;;;;;;;8.73;8.00;;;;;;;28.01;45.40;99786.41;5109198;28;20263;-66
2023/05/21 10:26:27;;;;;;;8.85;8.05;;;;;;;27.78;47.17;99783.41;5110019;28;20220;-66
2023/05/21 10:28:56;;;;;;;8.75;7.43;;;;;;;28.18;45.09;99772.78;5087344;28;20183;-66
2023/05/21 10:31:21;;;;;;;8.73;7.57;;;;;;;28.77;43.36;99781.53;5113602;27;20631;-66
2023/05/21 10:33:47;;;;;;;8.13;7.47;;;;;;;28.74;44.16;99775.84;5120416;27;20254;-65
2023/05/21 10:36:16;;;;;;;9.15;7.47;;;;;;;30.20;41.31;99772.31;5102662;28;20215;-65
2023/05/21 10:38:42;;;;;;;8.13;7.03;;;;;;;29.37;40.65;99767.13;5094721;28;20204;-66
2023/05/21 10:41:09;;;;;;;11.73;7.55;;;;;;;28.02;43.60;99760.78;5107740;27;20245;-65
2023/05/21 10:43:45;;;;;;;8.93;8.13;;;;;;;26.39;50.48;99763.38;5121583;27;20187;-65
2023/05/21 10:47:04;;;;;;;8.88;8.07;;;;;;;25.01;60.23;99758.44;5112902;28;20201;-66
2023/05/21 10:49:52;;;;;;;9.65;8.82;;;;;;;25.09;60.91;99760.97;5050950;28;20186;-65
2023/05/21 10:52:33;;;;;;;9.52;8.18;;;;;;;25.13;62.02;99758.75;5116924;27;20230;-65
2023/05/21 10:55:36;;;;;;;8.85;7.85;;;;;;;25.04;63.64;99759.88;5114098;28;20191;-66
2023/05/21 10:58:13;;;;;;;9.70;8.80;;;;;;;24.92;60.95;99751.66;5089606;28;20187;-65
2023/05/21 11:00:42;;;;;;;9.55;8.55;;;;;;;24.64;67.71;99755.78;5090374;27;20298;-64
2023/05/21 11:03:10;;;;;;;9.23;8.52;;;;;;;24.60;68.73;99753.72;5112809;28;20645;-65
2023/05/21 11:05:55;;;;;;;10.38;9.23;;;;;;;24.72;72.18;99759.34;5112149;28;20179;-64
2023/05/21 11:08:25;;;;;;;9.65;8.73;;;;;;;24.73;72.60;99755.72;5113520;28;20198;-64
2023/05/21 11:10:52;;;;;;;12.40;8.80;;;;;;;24.38;74.76;99751.00;5101499;28;20239;-64
2023/05/21 11:13:20;;;;;;;10.20;9.20;;;;;;;24.49;75.81;99750.53;5116494;27;20187;-65
2023/05/21 11:16:01;;;;;;;12.40;9.50;;;;;;;24.40;77.51;99748.19;5100799;28;20238;-65
2023/05/21 11:18:29;;;;;;;10.63;9.70;;;;;;;24.85;73.38;99743.72;5104725;28;20193;-66